Data for 11/11/2008

Time Sea-Level Adjusted Pressure Absolute Pressure Temperature Relative Humidity Dew Point   
(mb) (inHg) (mb) (inHg) (C) (F) (%) (C) (F)
00:05 1015 29.97 844 24.92 3.8 38.8 76 -0.1 31.9
00:10 1015 29.97 845 24.95 3.8 38.8 76 -0.1 31.7
00:15 1015 29.97 845 24.95 3.8 38.9 76 -0.1 31.9
00:20 1016 30 845 24.95 4 39.3 70 -0.9 30.3
00:25 1015 29.97 845 24.95 4.4 39.9 70 -0.5 31.1
00:30 1016 30 845 24.95 4.5 40.1 69 -0.6 31
00:35 1016 30 845 24.95 4.6 40.2 72 -0.1 31.9
00:40 1016 30 845 24.95 4.4 39.9 72 -0.2 31.6
00:45 1016 30 845 24.95 4.2 39.6 71 -0.5 31.1
00:50 1016 30 845 24.95 4.2 39.5 74 -0 32
00:55 1016 30 845 24.95 4.1 39.3 75 0 32
01:00 1016 30 845 24.95 3.9 39 76 0 32.1
01:05 1016 30 845 24.95 3.7 38.7 76 -0 32
01:10 1016 30 845 24.95 3.7 38.7 76 -0.2 31.7
01:15 1016 30 845 24.95 3.7 38.7 77 -0 32
01:20 1016 30 845 24.95 3.6 38.4 77 -0.1 31.8
01:25 1016 30 845 24.95 3.6 38.4 77 -0.1 31.8
01:30 1016 30 845 24.95 3.7 38.6 76 -0.1 31.7
01:35 1016 30 845 24.95 3.7 38.7 76 -0.1 31.8
01:40 1016 30 845 24.95 3.7 38.6 76 -0.2 31.7
01:45 1016 30 845 24.95 3.6 38.5 76 -0.3 31.5
01:50 1016 30 845 24.95 3.6 38.4 76 -0.2 31.6
01:55 1016 30 845 24.95 3.6 38.4 77 -0.2 31.7
02:00 1016 30 845 24.95 3.5 38.3 78 -0.1 31.9
02:05 1016 30 845 24.95 3.1 37.5 80 0 32
02:10 1016 30 845 24.95 2.8 37.1 81 -0.2 31.7
02:15 1016 30 845 24.95 3 37.4 80 -0.1 31.8
02:20 1016 30 846 24.98 3.2 37.8 79 -0 32
02:25 1016 30 846 24.98 3.4 38.2 78 0 32.1
02:30 1016 30 846 24.98 3.5 38.4 79 0.2 32.3
02:35 1017 30.03 846 24.98 3.6 38.5 79 0.2 32.4
02:40 1017 30.03 846 24.98 3.6 38.5 79 0.4 32.7
02:45 1017 30.03 846 24.98 3.6 38.4 80 0.4 32.8
02:50 1017 30.03 846 24.98 3.6 38.4 81 0.5 32.9
02:55 1017 30.03 846 24.98 3.5 38.3 81 0.6 33
03:00 1017 30.03 846 24.98 3.4 38 82 0.6 33.1
03:05 1017 30.03 846 24.98 2.8 37 84 0.3 32.6
03:10 1017 30.03 846 24.98 2.7 36.9 84 0.2 32.3
03:15 1017 30.03 846 24.98 2.6 36.7 84 0.2 32.3
03:20 1017 30.03 846 24.98 2.6 36.7 84 0.1 32.2
03:25 1016 30 846 24.98 2.9 37.2 82 0.2 32.3
03:30 1016 30 846 24.98 2.9 37.2 83 0.3 32.5
03:35 1017 30.03 846 24.98 2.6 36.7 84 0.2 32.3
03:40 1017 30.03 846 24.98 2.6 36.7 83 0.1 32.2
03:45 1017 30.03 846 24.98 2.7 36.9 83 0.1 32.2
03:50 1017 30.03 846 24.98 2.6 36.6 84 0.1 32.2
03:55 1017 30.03 846 24.98 2.6 36.7 84 0.2 32.3
04:00 1017 30.03 846 24.98 2.6 36.7 84 0.2 32.3
04:05 1017 30.03 846 24.98 2.5 36.5 85 0.2 32.4
04:10 1017 30.03 846 24.98 2.4 36.3 85 0.2 32.3
04:15 1017 30.03 846 24.98 2.5 36.4 84 0.1 32.1
04:20 1017 30.03 846 24.98 2.5 36.5 84 0.1 32.1
04:25 1017 30.03 846 24.98 2.4 36.3 85 0.1 32.2
04:30 1017 30.03 846 24.98 2.4 36.3 85 0 32.1
04:35 1017 30.03 846 24.98 2.4 36.4 83 -0.1 31.8
04:40 1016 30 846 24.98 2.5 36.5 83 -0.1 31.8
04:45 1016 30 846 24.98 2.5 36.5 83 -0.1 31.7
04:50 1016 30 846 24.98 2.4 36.4 82 -0.3 31.4
04:55 1016 30 846 24.98 2.5 36.5 82 -0.3 31.4
05:00 1016 30 846 24.98 2.6 36.7 82 -0.2 31.6
05:05 1016 30 846 24.98 2.4 36.4 83 -0.2 31.7
05:10 1016 30 846 24.98 2.5 36.4 81 -0.4 31.2
05:15 1016 30 846 24.98 2.4 36.3 82 -0.3 31.4
05:20 1016 30 846 24.98 2.3 36.2 83 -0.4 31.4
05:25 1016 30 846 24.98 2.1 35.7 84 -0.4 31.3
05:30 1016 30 846 24.98 1.9 35.4 84 -0.5 31.1
05:35 1016 30 846 24.98 1.8 35.2 84 -0.6 30.9
05:40 1016 30 846 24.98 1.7 35.1 84 -0.7 30.7
05:45 1016 30 846 24.98 1.9 35.4 80 -1.1 29.9
05:50 1016 30 846 24.98 2.2 36 78 -1.2 29.8
05:55 1017 30.03 846 24.98 2.4 36.4 77 -1.2 29.8
06:00 1017 30.03 846 24.98 2.5 36.6 76 -1.2 29.8
06:05 1017 30.03 846 24.98 2.5 36.4 76 -1.3 29.7
06:10 1017 30.03 846 24.98 2.5 36.5 74 -1.7 29
06:15 1016 30 846 24.98 2.9 37.2 72 -1.7 29
06:20 1016 30 846 24.98 3.1 37.6 72 -1.5 29.3
06:25 1016 30 846 24.98 2.9 37.3 72 -1.6 29.1
06:30 1016 30 846 24.98 2.7 36.9 73 -1.6 29.1
06:35 1016 30 846 24.98 2.6 36.7 75 -1.4 29.4
06:40 1016 30 846 24.98 3.1 37.5 72 -1.5 29.3
06:45 1016 30 846 24.98 3 37.4 74 -1.2 29.8
06:50 1016 30 846 24.98 2.9 37.3 74 -1.2 29.9
06:55 1016 30 846 24.98 2.4 36.3 77 -1.3 29.7
07:00 1016 30 846 24.98 1.9 35.4 78 -1.5 29.3
07:05 1016 30 846 24.98 1.5 34.7 82 -1.3 29.7
07:10 1016 30 846 24.98 1.1 34.1 84 -1.3 29.6
07:15 1016 30 846 24.98 1.2 34.2 83 -1.4 29.6
07:20 1016 30 846 24.98 1.4 34.4 83 -1.3 29.7
07:25 1016 30 846 24.98 1.5 34.8 82 -1.3 29.7
07:30 1016 30 846 24.98 1.6 34.8 81 -1.3 29.7
07:35 1016 30 846 24.98 1.6 34.9 80 -1.4 29.5
07:40 1016 30 846 24.98 1.6 34.9 81 -1.4 29.6
07:45 1016 30 846 24.98 1.8 35.3 78 -1.6 29.2
07:50 1016 30 846 24.98 2.1 35.8 77 -1.5 29.2
07:55 1016 30 846 24.98 2.1 35.8 76 -1.6 29.1
08:00 1017 30.03 846 24.98 2.6 36.7 74 -1.6 29.2
08:05 1017 30.03 846 24.98 3 37.4 72 -1.6 29.2
08:10 1016 30 846 24.98 3.3 37.9 72 -1.3 29.7
08:15 1016 30 846 24.98 2.6 36.6 76 -1.2 29.8
08:20 1016 30 846 24.98 1.9 35.5 78 -1.6 29.2
08:25 1016 30 846 24.98 2 35.6 77 -1.7 29
08:30 1017 30.03 846 24.98 2.2 36 76 -1.5 29.3
08:35 1017 30.03 846 24.98 2.3 36.2 75 -1.6 29.1
08:40 1016 30 846 24.98 2.4 36.4 76 -1.5 29.4
08:45 1016 30 846 24.98 2.1 35.7 79 -1.2 29.8
08:50 1016 30 846 24.98 1.6 34.9 80 -1.4 29.5
08:55 1016 30 846 24.98 1.6 34.8 80 -1.4 29.4
09:00 1016 30 846 24.98 1.6 34.9 80 -1.5 29.3
09:05 1016 30 846 24.98 1.7 35.1 79 -1.5 29.3
09:10 1016 30 846 24.98 1.7 35.1 78 -1.7 29
09:15 1016 30 846 24.98 2 35.6 76 -1.9 28.6
09:20 1016 30 846 24.98 2.4 36.4 73 -1.9 28.6
09:25 1016 30 846 24.98 2.8 37.1 74 -1.4 29.6
09:30 1016 30 846 24.98 3.1 37.6 73 -1.2 29.9
09:35 1016 30 846 24.98 3.1 37.7 73 -1.2 29.8
09:40 1016 30 846 24.98 3.3 38 72 -1.2 29.8
09:45 1016 30 846 24.98 3.3 37.9 72 -1.2 29.8
09:50 1016 30 846 24.98 3.5 38.3 72 -1.1 30.1
09:55 1017 30.03 846 24.98 4.1 39.5 68 -1.3 29.7
10:00 1016 30 846 24.98 4.9 40.9 62 -1.7 28.9
10:05 1016 30 846 24.98 5.3 41.6 59 -2.1 28.2
10:10 1016 30 846 24.98 5.6 42.1 59 -1.8 28.8
10:15 1016 30 846 24.98 5.9 42.5 58 -1.8 28.8
10:20 1016 30 845 24.95 6.1 43 56 -2 28.4
10:25 1016 30 845 24.95 6.2 43.2 56 -1.8 28.7
10:30 1016 30 845 24.95 6.4 43.5 54 -2.2 28
10:35 1016 30 845 24.95 6.8 44.2 50 -3 26.5
10:40 1016 30 845 24.95 7 44.7 50 -2.7 27.1
10:45 1016 30 845 24.95 6.7 44 50 -3 26.7
10:50 1016 30 845 24.95 6.5 43.7 50 -3.2 26.2
10:55 1016 30 845 24.95 6.9 44.3 48 -3.3 26.1
11:00 1016 30 845 24.95 6.9 44.4 50 -2.7 27.1
11:05 1016 30 845 24.95 6.7 44 46 -4.1 24.5
11:10 1016 30 845 24.95 6.6 43.8 47 -3.9 25
11:15 1016 30 845 24.95 6.8 44.2 48 -3.5 25.7
11:20 1016 30 845 24.95 6 42.9 51 -3.3 26.1
11:25 1016 30 845 24.95 6.5 43.6 46 -4.2 24.4
11:30 1016 30 845 24.95 7 44.5 47 -3.7 25.4
11:35 1016 30 845 24.95 7.2 44.9 48 -3.1 26.4
11:40 1016 30 845 24.95 6.9 44.5 48 -3.4 25.8
11:45 1016 30 845 24.95 7.3 45.1 46 -3.4 25.8
11:50 1015 29.97 845 24.95 7.4 45.3 46 -3.3 26.1
11:55 1015 29.97 845 24.95 6.6 44 47 -4 24.9
12:00 1015 29.97 844 24.92 6.7 44.1 47 -3.8 25.2
12:05 1015 29.97 844 24.92 6.9 44.4 47 -3.7 25.3
12:10 1015 29.97 844 24.92 7.1 44.7 46 -3.7 25.4
12:15 1015 29.97 844 24.92 7.4 45.3 45 -3.6 25.5
12:20 1015 29.97 844 24.92 7.3 45.2 46 -3.4 25.9
12:25 1015 29.97 844 24.92 7.4 45.3 46 -3.3 26
12:30 1014 29.94 844 24.92 7.6 45.7 45 -3.6 25.4
12:35 1014 29.94 844 24.92 7.6 45.6 45 -3.5 25.8
12:40 1014 29.94 844 24.92 7.7 45.9 44 -3.8 25.1
12:45 1014 29.94 843 24.89 7.8 46.1 44 -3.5 25.7
12:50 1014 29.94 843 24.89 7.8 46 45 -3.3 26.1
12:55 1014 29.94 843 24.89 7.3 45.1 46 -3.5 25.8
13:00 1014 29.94 843 24.89 7.4 45.3 45 -3.8 25.2
13:05 1014 29.94 843 24.89 7.8 46 43 -4 24.8
13:10 1014 29.94 843 24.89 7.8 46.1 44 -3.8 25.2
13:15 1014 29.94 843 24.89 7.6 45.7 44 -4 24.8
13:20 1013 29.91 843 24.89 8 46.4 42 -4 24.8
13:25 1014 29.94 843 24.89 8.3 47 41 -4.2 24.5
13:30 1014 29.94 843 24.89 8.3 47 41 -4.1 24.7
13:35 1013 29.91 843 24.89 8.4 47.1 40 -4.4 24.1
13:40 1013 29.91 843 24.89 8.5 47.3 40 -4.4 24
13:45 1013 29.91 843 24.89 8.3 47 40 -4.6 23.8
13:50 1013 29.91 843 24.89 8.2 46.7 41 -4.3 24.2
13:55 1013 29.91 843 24.89 7.9 46.3 41 -4.4 24
14:00 1013 29.91 843 24.89 7.9 46.2 42 -4.1 24.7
14:05 1014 29.94 843 24.89 7.9 46.3 42 -4.2 24.5
14:10 1014 29.94 843 24.89 8 46.3 43 -3.8 25.2
14:15 1014 29.94 843 24.89 7.9 46.3 43 -3.8 25.2
14:20 1014 29.94 843 24.89 7.9 46.1 44 -3.8 25.2
14:25 1014 29.94 843 24.89 7.7 45.8 44 -3.7 25.3
14:30 1014 29.94 843 24.89 7.6 45.7 44 -3.7 25.3
14:35 1013 29.91 843 24.89 7.5 45.5 45 -3.6 25.5
14:40 1013 29.91 843 24.89 7.4 45.4 46 -3.6 25.6
14:45 1013 29.91 843 24.89 7.3 45.2 46 -3.5 25.6
14:50 1013 29.91 843 24.89 7.4 45.2 46 -3.4 25.9
14:55 1013 29.91 843 24.89 7.2 45 48 -3.1 26.4
15:00 1013 29.91 842 24.86 6.9 44.4 47 -3.6 25.6
15:05 1013 29.91 842 24.86 6.9 44.4 48 -3.4 25.8
15:10 1013 29.91 842 24.86 7 44.6 48 -3.3 26.1
15:15 1013 29.91 842 24.86 6.8 44.3 49 -3.2 26.3
15:20 1013 29.91 842 24.86 6.9 44.4 49 -3.1 26.3
15:25 1013 29.91 843 24.89 7 44.5 49 -3 26.7
15:30 1014 29.94 843 24.89 7.1 44.7 48 -3.2 26.2
15:35 1014 29.94 843 24.89 7.1 44.7 48 -3.1 26.4
15:40 1014 29.94 843 24.89 6.9 44.3 49 -3.1 26.4
15:45 1014 29.94 843 24.89 6.9 44.5 48 -3.3 26.1
15:50 1014 29.94 843 24.89 6.8 44.3 57 -1.1 30
15:55 1014 29.94 844 24.92 5.9 42.6 63 -0.6 30.9
16:00 1015 29.97 844 24.92 5.4 41.7 66 -0.5 31.1
16:05 1015 29.97 844 24.92 5.1 41.1 67 -0.4 31.2
16:10 1015 29.97 844 24.92 4.9 40.8 69 -0.4 31.3
16:15 1014 29.94 844 24.92 4.8 40.6 69 -0.5 31.2
16:20 1014 29.94 843 24.89 4.8 40.7 68 -0.5 31.1
16:25 1014 29.94 843 24.89 4.8 40.7 68 -0.5 31
16:30 1014 29.94 843 24.89 4.9 40.8 67 -0.8 30.6
16:35 1014 29.94 844 24.92 4.9 40.8 67 -0.7 30.7
16:40 1014 29.94 844 24.92 4.7 40.5 68 -0.7 30.8
16:45 1014 29.94 844 24.92 4.6 40.2 69 -0.5 31.1
16:50 1014 29.94 844 24.92 4.1 39.4 72 -0.4 31.2
16:55 1014 29.94 843 24.89 3.8 38.9 73 -0.5 31.1
17:00 1014 29.94 843 24.89 3.7 38.6 74 -0.4 31.2
17:05 1014 29.94 843 24.89 3.5 38.3 78 -0.1 31.9
17:10 1014 29.94 843 24.89 3.1 37.6 79 -0.2 31.6
17:15 1014 29.94 843 24.89 3 37.4 78 -0.4 31.2
17:20 1014 29.94 843 24.89 3.2 37.8 76 -0.6 30.8
17:25 1014 29.94 843 24.89 3.5 38.4 74 -0.6 31
17:30 1014 29.94 843 24.89 3.7 38.7 73 -0.6 30.9
17:35 1014 29.94 843 24.89 3.7 38.7 73 -0.6 30.9
17:40 1014 29.94 843 24.89 3.6 38.5 74 -0.7 30.8
17:45 1014 29.94 844 24.92 3.6 38.4 72 -0.9 30.3
17:50 1015 29.97 844 24.92 3.7 38.6 72 -0.9 30.4
17:55 1015 29.97 844 24.92 3.7 38.7 71 -1 30.2
18:00 1015 29.97 844 24.92 3.9 39 70 -1.1 30
18:05 1015 29.97 844 24.92 4 39.3 68 -1.2 29.8
18:10 1015 29.97 844 24.92 4.3 39.7 67 -1.2 29.8
18:15 1015 29.97 844 24.92 4.1 39.5 69 -1.1 30.1
18:20 1015 29.97 844 24.92 4 39.2 70 -0.9 30.3
18:25 1015 29.97 844 24.92 4 39.1 71 -0.8 30.5
18:30 1015 29.97 844 24.92 4 39.2 71 -0.7 30.7
18:35 1014 29.94 844 24.92 3.9 38.9 74 -0.3 31.5
18:40 1014 29.94 843 24.89 3.5 38.3 73 -0.9 30.4
18:45 1014 29.94 843 24.89 3.5 38.2 75 -0.6 30.9
18:50 1014 29.94 843 24.89 3.5 38.3 75 -0.5 31
18:55 1014 29.94 844 24.92 3.5 38.3 76 -0.4 31.2
19:00 1014 29.94 844 24.92 3.5 38.2 77 -0.2 31.6
19:05 1015 29.97 844 24.92 3.4 38 78 -0.1 31.9
19:10 1014 29.94 844 24.92 3.3 37.9 77 -0.3 31.5
19:15 1014 29.94 844 24.92 3.3 38 76 -0.5 31.1
19:20 1014 29.94 843 24.89 3.3 38 75 -0.7 30.7
19:25 1014 29.94 844 24.92 3.4 38.1 75 -0.6 30.9
19:30 1014 29.94 843 24.89 3.5 38.3 74 -0.6 30.9
19:35 1014 29.94 843 24.89 3.6 38.4 74 -0.6 31
19:40 1014 29.94 843 24.89 3.8 38.8 75 -0.3 31.5
19:45 1014 29.94 843 24.89 3.8 38.9 73 -0.7 30.8
19:50 1014 29.94 843 24.89 3.9 39 73 -0.4 31.2
19:55 1014 29.94 843 24.89 3.9 39 74 -0.3 31.4
20:00 1014 29.94 843 24.89 3.9 38.9 75 -0.1 31.8
20:05 1014 29.94 843 24.89 3.7 38.6 74 -0.6 30.9
20:10 1014 29.94 843 24.89 3.7 38.6 77 -0 32
20:15 1014 29.94 843 24.89 3.4 38.2 79 0.1 32.2
20:20 1014 29.94 843 24.89 3.2 37.8 78 -0.2 31.7
20:25 1014 29.94 844 24.92 3.2 37.8 79 0 32
20:30 1014 29.94 844 24.92 3.4 38 79 0.1 32.1
20:35 1014 29.94 844 24.92 3.4 38.1 78 -0.1 31.8
20:40 1014 29.94 844 24.92 3.5 38.4 79 0.2 32.4
20:45 1015 29.97 844 24.92 3.6 38.4 76 -0.2 31.6
20:50 1015 29.97 844 24.92 3.8 38.9 77 0.1 32.2
20:55 1015 29.97 844 24.92 3.9 39 77 0.2 32.3
21:00 1015 29.97 844 24.92 3.9 39.1 74 -0.3 31.4
21:05 1015 29.97 844 24.92 4.1 39.3 73 -0.4 31.4
21:10 1015 29.97 844 24.92 4.1 39.4 72 -0.4 31.2
21:15 1015 29.97 844 24.92 4 39.3 75 -0 31.9
21:20 1015 29.97 844 24.92 3.9 39 74 -0.2 31.6
21:25 1015 29.97 844 24.92 3.9 39 72 -0.8 30.6
21:30 1015 29.97 844 24.92 4 39.1 70 -1 30.3
21:35 1015 29.97 844 24.92 4 39.2 72 -0.7 30.7
21:40 1015 29.97 844 24.92 4.1 39.3 71 -0.7 30.7
21:45 1015 29.97 844 24.92 4.1 39.4 70 -0.8 30.5
21:50 1015 29.97 844 24.92 4.1 39.4 69 -1 30.2
21:55 1015 29.97 844 24.92 4.1 39.4 69 -1 30.1
22:00 1015 29.97 844 24.92 4.2 39.6 67 -1.3 29.7
22:05 1015 29.97 844 24.92 4.3 39.8 65 -1.7 29
22:10 1015 29.97 844 24.92 4.4 39.9 65 -1.6 29
22:15 1015 29.97 844 24.92 4.4 39.9 64 -1.7 28.9
22:20 1015 29.97 844 24.92 4.4 39.9 64 -1.8 28.8
22:25 1015 29.97 844 24.92 4.4 39.9 65 -1.6 29.1
22:30 1015 29.97 844 24.92 4.4 40 64 -1.8 28.8
22:35 1015 29.97 844 24.92 4.5 40.2 65 -1.5 29.2
22:40 1015 29.97 844 24.92 4.4 39.8 66 -1.4 29.5
22:45 1015 29.97 844 24.92 4.2 39.5 67 -1.4 29.5
22:50 1015 29.97 844 24.92 4 39.3 67 -1.6 29.1
22:55 1015 29.97 844 24.92 4.1 39.4 66 -1.7 29
23:00 1015 29.97 845 24.95 4.1 39.4 66 -1.7 28.9
23:05 1015 29.97 845 24.95 4.1 39.4 66 -1.7 28.9
23:10 1015 29.97 845 24.95 4.1 39.4 65 -1.9 28.6
23:15 1015 29.97 845 24.95 4.1 39.5 65 -1.8 28.7
23:20 1016 30 845 24.95 4.3 39.7 63 -2.1 28.3
23:25 1016 30 845 24.95 4.4 39.9 64 -1.9 28.6
23:30 1016 30 845 24.95 4.4 39.9 63 -2 28.3
23:35 1016 30 845 24.95 4.4 40 63 -2 28.3
23:40 1016 30 845 24.95 4.5 40.2 62 -2 28.4
23:45 1016 30 845 24.95 4.6 40.2 63 -1.8 28.7
23:50 1016 30 845 24.95 4.5 40 63 -1.9 28.5
23:55 1016 30 845 24.95 4.3 39.7 63 -2.1 28.3
24:00 1016 30 845 24.95 4.3 39.7 64 -1.9 28.5